Terminal Aerodrome Forecast
Issued by NWS

Home | Current Version | Previous Version | Graphics & Text | Print | Product List | Glossary On
Versions: 1 2 3 4 5 6 7 8 9 10 11 12 13 14
983
FTUS43 KOAX 050534
TAFCDR
TAF
KCDR 050534Z 0506/0606 25008KT P6SM OVC070
     FM051100 28012KT P6SM BKN070 BKN100
     FM051700 30015G22KT P6SM SCT200
     FM052200 29010KT P6SM SKC=

USA.gov is the U.S. government's official web portal to all federal, state and local government web resources and services.